Time;durP1;ratioP1;P1;durP2;ratioP2;P2;SDS_P1;SDS_P2;PMS_P1;PMS_P2;Temp;Humidity;BMP_temperature;BMP_pressure;BME280_temperature;BME280_humidity;BME280_pressure;Samples;Min_cycle;Max_cycle;Signal;HPM_P1;HPM_P2
2023/09/07 00:00:13;;;;;;;8.63;6.17;;;;;;;18.13;93.29;98460.31;4107150;28;21190;-89
2023/09/07 00:02:16;;;;;;;8.27;6.40;;;;;;;18.12;92.81;98456.81;4116309;28;20635;-89
2023/09/07 00:04:31;;;;;;;7.90;5.93;;;;;;;18.10;93.43;98466.69;4119578;28;20705;-89
2023/09/07 00:06:34;;;;;;;9.27;6.50;;;;;;;18.08;93.28;98463.34;4119354;28;20624;-89
2023/09/07 00:08:37;;;;;;;7.23;5.73;;;;;;;18.05;93.61;98458.34;4121883;28;20763;-89
2023/09/07 00:10:40;;;;;;;7.00;6.17;;;;;;;18.06;93.05;98459.19;4104160;28;21307;-89
2023/09/07 00:12:45;;;;;;;6.40;5.67;;;;;;;18.05;93.25;98463.63;4124090;28;20669;-89
2023/09/07 00:14:49;;;;;;;8.70;6.27;;;;;;;18.01;93.09;98462.25;4118274;28;20632;-88
2023/09/07 00:16:52;;;;;;;6.63;5.93;;;;;;;18.01;93.40;98461.41;4114620;28;20643;-89
2023/09/07 00:18:55;;;;;;;6.40;5.27;;;;;;;17.98;93.17;98454.59;4120205;28;20633;-89
2023/09/07 00:20:59;;;;;;;6.60;5.50;;;;;;;17.94;93.24;98461.13;4107199;28;20633;-88
2023/09/07 00:23:04;;;;;;;6.80;5.70;;;;;;;17.91;92.88;98454.50;4115111;28;20640;-89
2023/09/07 00:25:08;;;;;;;8.30;6.00;;;;;;;17.92;93.28;98460.44;4118786;28;20628;-89
2023/09/07 00:27:12;;;;;;;6.40;5.30;;;;;;;17.91;92.93;98460.59;4116771;28;20661;-89
2023/09/07 00:29:16;;;;;;;7.93;6.03;;;;;;;17.89;93.66;98457.28;4121827;28;20701;-88
2023/09/07 00:31:19;;;;;;;7.13;6.10;;;;;;;17.89;93.38;98456.41;4108133;28;21030;-89
2023/09/07 00:33:23;;;;;;;6.70;5.13;;;;;;;17.88;93.36;98457.41;4112082;28;20741;-89
2023/09/07 00:35:26;;;;;;;7.67;6.00;;;;;;;17.83;93.42;98452.56;4119439;28;20689;-89
2023/09/07 00:37:29;;;;;;;7.60;5.97;;;;;;;17.82;93.46;98457.97;4120391;28;21002;-89
2023/09/07 00:39:32;;;;;;;7.43;6.43;;;;;;;17.81;92.96;98448.38;4124908;28;21092;-89
2023/09/07 00:41:35;;;;;;;9.53;6.47;;;;;;;17.80;93.67;98452.84;4115776;28;20726;-89
2023/09/07 00:43:40;;;;;;;7.27;6.37;;;;;;;17.81;93.62;98454.47;4121270;28;20649;-89
2023/09/07 00:45:45;;;;;;;9.00;6.33;;;;;;;17.81;93.90;98459.75;4119062;28;20719;-89
2023/09/07 00:47:50;;;;;;;8.50;7.03;;;;;;;17.81;93.35;98453.66;4120553;28;20641;-89
2023/09/07 00:49:53;;;;;;;7.87;6.50;;;;;;;17.81;93.75;98459.75;4103450;28;20666;-88
2023/09/07 00:51:57;;;;;;;6.90;6.20;;;;;;;17.76;93.51;98456.72;4119817;28;20745;-89
2023/09/07 00:54:00;;;;;;;8.90;7.03;;;;;;;17.77;93.17;98462.81;4124680;28;21112;-88
2023/09/07 00:56:04;;;;;;;7.67;5.80;;;;;;;17.74;93.24;98455.19;4117298;28;20652;-89
2023/09/07 00:58:06;;;;;;;11.03;6.10;;;;;;;17.72;94.14;98459.78;4117816;28;20638;-89
2023/09/07 01:00:11;;;;;;;7.30;6.23;;;;;;;17.70;93.58;98446.72;4122318;28;20726;-89
2023/09/07 01:02:16;;;;;;;7.73;6.37;;;;;;;17.70;93.74;98453.81;4122921;28;20633;-89
2023/09/07 01:04:19;;;;;;;6.50;5.80;;;;;;;17.71;93.21;98456.31;4105271;28;20678;-89
2023/09/07 01:06:27;;;;;;;6.50;5.80;;;;;;;17.70;92.68;98459.91;4122939;28;20641;-88
2023/09/07 01:08:36;;;;;;;7.10;6.00;;;;;;;17.69;93.48;98454.78;4114994;28;20668;-89
2023/09/07 01:10:39;;;;;;;6.70;6.00;;;;;;;17.69;93.09;98460.88;4121957;28;21129;-89
2023/09/07 01:12:42;;;;;;;7.57;6.80;;;;;;;17.70;93.72;98457.28;4119361;28;20726;-89
2023/09/07 01:14:46;;;;;;;7.53;6.27;;;;;;;17.70;93.29;98453.81;4121918;28;21248;-89
2023/09/07 01:16:49;;;;;;;6.57;5.77;;;;;;;17.70;93.36;98457.28;4122031;28;20638;-88
2023/09/07 01:18:54;;;;;;;6.87;5.90;;;;;;;17.70;93.69;98459.09;4107195;28;20722;-89
2023/09/07 01:20:58;;;;;;;6.13;5.37;;;;;;;17.67;93.90;98457.56;4125302;28;20632;-89
2023/09/07 01:23:04;;;;;;;8.47;6.50;;;;;;;17.64;94.11;98454.38;4107057;28;20808;-89
2023/09/07 01:25:07;;;;;;;7.47;6.57;;;;;;;17.61;93.75;98460.75;4102211;28;20726;-89
2023/09/07 01:27:11;;;;;;;7.30;6.30;;;;;;;17.59;94.04;98453.94;4109951;28;21290;-89
2023/09/07 01:29:13;;;;;;;7.50;5.93;;;;;;;17.59;93.06;98457.41;4111104;28;20637;-89
2023/09/07 01:31:16;;;;;;;6.90;6.17;;;;;;;17.58;92.84;98457.56;4132815;28;20766;-88
2023/09/07 01:33:19;;;;;;;7.93;6.63;;;;;;;17.56;93.81;98460.34;4125105;28;20715;-89
2023/09/07 01:35:22;;;;;;;7.93;6.40;;;;;;;17.55;93.55;98457.84;4123908;28;20629;-89
2023/09/07 01:37:26;;;;;;;7.50;5.90;;;;;;;17.55;93.32;98463.09;4112564;28;21077;-89
2023/09/07 01:39:30;;;;;;;6.87;5.70;;;;;;;17.52;94.10;98456.28;4120067;28;20747;-89
2023/09/07 01:41:34;;;;;;;9.30;6.80;;;;;;;17.53;93.64;98457.16;4103424;28;20682;-89
2023/09/07 01:43:38;;;;;;;7.03;6.33;;;;;;;17.52;92.96;98453.66;4103079;28;21109;-89
2023/09/07 01:45:42;;;;;;;7.37;6.63;;;;;;;17.52;93.15;98455.47;4102872;28;21087;-89
2023/09/07 01:47:44;;;;;;;6.83;6.03;;;;;;;17.52;93.40;98455.47;4132628;28;20631;-89
2023/09/07 01:49:47;;;;;;;7.90;6.20;;;;;;;17.53;94.46;98454.50;4123167;28;21061;-89
2023/09/07 01:51:52;;;;;;;7.53;6.37;;;;;;;17.53;94.22;98460.59;4121175;28;20732;-88
2023/09/07 01:53:55;;;;;;;7.50;6.73;;;;;;;17.51;93.99;98446.75;4108933;28;20676;-89
2023/09/07 01:56:00;;;;;;;6.60;5.90;;;;;;;17.52;93.16;98458.09;4108401;28;20702;-89
2023/09/07 01:58:04;;;;;;;7.20;6.30;;;;;;;17.50;94.25;98455.59;4129707;28;20668;-89
2023/09/07 02:00:08;;;;;;;9.80;7.10;;;;;;;17.50;93.07;98455.59;4130660;28;20656;-89
2023/09/07 02:02:15;;;;;;;7.83;6.40;;;;;;;17.46;93.08;98463.13;4124762;28;20640;-89
2023/09/07 02:04:18;;;;;;;6.73;6.10;;;;;;;17.45;93.26;98461.44;4105656;28;20678;-89
2023/09/07 02:06:21;;;;;;;6.93;6.20;;;;;;;17.44;93.28;98465.03;4105111;28;20677;-89
2023/09/07 02:08:25;;;;;;;8.93;6.60;;;;;;;17.44;93.38;98459.75;4113373;28;20676;-89
2023/09/07 02:10:28;;;;;;;10.17;6.60;;;;;;;17.40;93.56;98464.47;4121243;28;20650;-89
2023/09/07 02:12:32;;;;;;;7.40;6.00;;;;;;;17.39;93.56;98460.16;4130822;28;20629;-89
2023/09/07 02:14:35;;;;;;;7.17;6.47;;;;;;;17.39;94.69;98467.25;4121002;28;20686;-89
2023/09/07 02:16:39;;;;;;;8.23;6.50;;;;;;;17.35;92.96;98455.31;4105825;28;20669;-88
2023/09/07 02:18:45;;;;;;;8.17;5.97;;;;;;;17.31;93.07;98452.13;4116123;28;21063;-89
2023/09/07 02:20:48;;;;;;;10.00;6.93;;;;;;;17.29;94.38;98451.44;4126902;28;20712;-89
2023/09/07 02:22:52;;;;;;;7.47;5.73;;;;;;;17.27;94.15;98463.06;4108929;28;20728;-88
2023/09/07 02:24:55;;;;;;;8.07;5.90;;;;;;;17.24;93.64;98456.25;4105398;28;20730;-89
2023/09/07 02:26:58;;;;;;;7.13;6.00;;;;;;;17.24;93.85;98460.72;4124582;28;20707;-89
2023/09/07 02:29:06;;;;;;;6.50;5.73;;;;;;;17.21;94.53;98458.34;4121438;28;20721;-89
2023/09/07 02:31:10;;;;;;;6.70;6.00;;;;;;;17.18;93.31;98458.59;4119485;28;20652;-89
2023/09/07 02:33:13;;;;;;;7.80;6.50;;;;;;;17.16;94.65;98460.53;4119038;28;20647;-89
2023/09/07 02:35:17;;;;;;;6.57;5.87;;;;;;;17.13;94.87;98460.81;4105824;28;20831;-88
2023/09/07 02:37:20;;;;;;;7.50;6.37;;;;;;;17.12;94.44;98465.25;4123975;28;20636;-89
2023/09/07 02:39:26;;;;;;;7.23;5.70;;;;;;;17.09;93.63;98457.63;4127253;28;20640;-88
2023/09/07 02:41:29;;;;;;;6.50;5.67;;;;;;;17.07;93.69;98462.16;4125157;28;21186;-89
2023/09/07 02:43:33;;;;;;;7.40;6.30;;;;;;;17.04;94.96;98461.63;4124564;28;20626;-89
2023/09/07 02:45:37;;;;;;;8.10;6.53;;;;;;;17.01;94.36;98459.25;4108586;28;20658;-89
2023/09/07 02:47:41;;;;;;;9.33;6.40;;;;;;;17.00;94.35;98460.22;4126491;28;20725;-89
2023/09/07 02:49:45;;;;;;;7.27;6.47;;;;;;;16.94;93.68;98460.75;4107079;28;20653;-89
2023/09/07 02:51:48;;;;;;;6.73;6.03;;;;;;;16.90;93.57;98462.00;4122927;28;21121;-89
2023/09/07 02:53:51;;;;;;;7.10;6.33;;;;;;;16.90;94.77;98461.16;4102798;28;20641;-89
2023/09/07 02:55:54;;;;;;;7.90;6.50;;;;;;;16.90;95.47;98463.78;4124036;28;20689;-89
2023/09/07 02:57:57;;;;;;;8.47;6.10;;;;;;;16.88;94.72;98461.28;4108936;28;20648;-89
2023/09/07 03:00:00;;;;;;;7.80;6.50;;;;;;;16.88;94.61;98460.47;4124394;28;20626;-89
2023/09/07 03:02:04;;;;;;;8.13;6.73;;;;;;;16.88;95.10;98453.38;4134308;28;20621;-88
2023/09/07 03:04:08;;;;;;;9.00;7.10;;;;;;;16.87;95.18;98454.38;4108024;28;20687;-89
2023/09/07 03:06:13;;;;;;;7.60;6.90;;;;;;;16.86;94.26;98450.06;4110804;28;20625;-89
2023/09/07 03:08:19;;;;;;;9.80;7.60;;;;;;;16.82;95.29;98450.44;4120355;28;20639;-89
2023/09/07 03:10:22;;;;;;;7.90;7.10;;;;;;;16.78;95.14;98452.53;4126296;28;20621;-89
2023/09/07 03:12:25;;;;;;;8.20;7.30;;;;;;;16.78;95.38;98449.91;4103205;28;20658;-89
2023/09/07 03:14:28;;;;;;;8.70;7.80;;;;;;;16.75;95.45;98444.06;4122516;28;21053;-89
2023/09/07 03:16:32;;;;;;;11.37;6.77;;;;;;;16.74;93.57;98448.50;4110048;28;20632;-89
2023/09/07 03:18:36;;;;;;;10.10;6.87;;;;;;;16.69;95.66;98441.97;4110719;28;21116;-89
2023/09/07 03:20:39;;;;;;;9.33;6.90;;;;;;;16.69;93.88;98439.34;4109172;28;20629;-89
2023/09/07 03:22:43;;;;;;;8.83;7.80;;;;;;;16.65;94.25;98445.84;4109651;28;20683;-89
2023/09/07 03:24:46;;;;;;;10.27;7.80;;;;;;;16.65;95.21;98444.00;4111774;28;20628;-89
2023/09/07 03:26:49;;;;;;;9.60;7.07;;;;;;;16.64;94.73;98441.50;4123056;28;20667;-89
2023/09/07 03:28:52;;;;;;;8.90;7.30;;;;;;;16.62;95.62;98441.66;4121352;28;21034;-89
2023/09/07 03:30:56;;;;;;;9.90;6.83;;;;;;;16.63;94.54;98445.13;4125162;28;20703;-89
2023/09/07 03:32:59;;;;;;;9.83;7.43;;;;;;;16.63;95.15;98448.59;4107612;28;20650;-89
2023/09/07 03:35:09;;;;;;;9.67;7.63;;;;;;;16.64;94.19;98458.19;4115554;28;20712;-89
2023/09/07 03:37:12;;;;;;;10.50;8.23;;;;;;;16.65;95.01;98451.91;4111401;28;21486;-89
2023/09/07 03:39:17;;;;;;;9.03;7.30;;;;;;;16.65;94.76;98449.28;4124814;28;20679;-89
2023/09/07 03:41:21;;;;;;;9.87;8.23;;;;;;;16.65;94.46;98454.56;4123769;28;21234;-89
2023/09/07 03:43:24;;;;;;;10.13;7.73;;;;;;;16.66;95.07;98450.97;4117672;28;20678;-89
2023/09/07 03:45:27;;;;;;;11.30;8.33;;;;;;;16.66;94.63;98453.59;4123812;28;20636;-89
2023/09/07 03:47:31;;;;;;;13.53;9.33;;;;;;;16.65;96.14;98449.28;4117269;28;20630;-89
2023/09/07 03:49:34;;;;;;;11.53;8.33;;;;;;;16.65;94.59;98449.28;4123175;28;20634;-89
2023/09/07 03:51:39;;;;;;;9.00;7.90;;;;;;;16.64;96.34;98450.28;4122226;28;20675;-89
2023/09/07 03:53:42;;;;;;;9.50;7.70;;;;;;;16.63;96.50;98451.22;4106068;28;20724;-89
2023/09/07 03:55:45;;;;;;;11.20;9.10;;;;;;;16.64;96.60;98454.69;4112909;28;20635;-90
2023/09/07 03:57:52;;;;;;;9.50;7.70;;;;;;;16.63;94.90;98448.59;4119421;28;20719;-89
2023/09/07 03:59:55;;;;;;;11.20;8.70;;;;;;;16.61;96.57;98450.53;4108769;28;20721;-89
2023/09/07 04:01:59;;;;;;;11.90;8.80;;;;;;;16.58;96.19;98450.81;4106855;28;20643;-89
2023/09/07 04:04:03;;;;;;;11.10;9.30;;;;;;;16.60;97.03;98442.78;4121392;28;21340;-89
2023/09/07 04:06:06;;;;;;;11.33;8.37;;;;;;;16.61;96.33;98445.28;4108061;28;20749;-92
2023/09/07 04:08:10;;;;;;;9.60;8.13;;;;;;;16.60;96.62;98451.50;4131735;28;20642;-89
2023/09/07 04:10:14;;;;;;;11.30;8.33;;;;;;;16.58;94.60;98442.03;4115656;28;20628;-89
2023/09/07 04:12:17;;;;;;;11.23;8.40;;;;;;;16.54;94.77;98441.50;4117066;28;20712;-89
2023/09/07 04:14:20;;;;;;;11.00;8.93;;;;;;;16.54;95.52;98440.66;4118692;28;20637;-89
2023/09/07 04:16:23;;;;;;;9.77;8.77;;;;;;;16.51;95.71;98440.94;4123088;28;21199;-89
2023/09/07 04:18:26;;;;;;;9.80;8.50;;;;;;;16.50;95.49;98447.97;4124421;28;21060;-89
2023/09/07 04:20:30;;;;;;;9.80;8.77;;;;;;;16.51;94.93;98444.38;4121775;28;20652;-89
2023/09/07 04:22:33;;;;;;;13.50;8.47;;;;;;;16.50;96.11;98441.06;4106450;28;20634;-89
2023/09/07 04:24:38;;;;;;;9.87;8.87;;;;;;;16.48;95.29;98445.59;4117469;28;20639;-89
2023/09/07 04:26:41;;;;;;;9.73;8.23;;;;;;;16.41;96.20;98440.03;4122666;28;20631;-90
2023/09/07 04:28:44;;;;;;;10.33;8.20;;;;;;;16.39;95.67;98441.13;4122253;28;20665;-89
2023/09/07 04:30:48;;;;;;;9.97;8.30;;;;;;;16.36;96.67;98441.41;4121098;28;20724;-89
2023/09/07 04:32:51;;;;;;;9.93;8.90;;;;;;;16.34;97.44;98443.34;4115263;28;20664;-89
2023/09/07 04:34:56;;;;;;;10.07;8.70;;;;;;;16.33;97.02;98439.06;4108203;28;21072;-88
2023/09/07 04:36:59;;;;;;;9.77;8.13;;;;;;;16.33;95.31;98441.69;4108757;28;20636;-89
2023/09/07 04:39:03;;;;;;;11.20;8.97;;;;;;;16.32;96.52;98440.00;4122016;28;20625;-89
2023/09/07 04:41:08;;;;;;;11.27;9.13;;;;;;;16.32;94.98;98447.91;4124792;28;20647;-88
2023/09/07 04:43:12;;;;;;;11.93;8.80;;;;;;;16.31;96.12;98448.84;4108898;28;20692;-88
2023/09/07 04:45:16;;;;;;;10.20;7.93;;;;;;;16.28;96.78;98449.13;4134707;28;21256;-88
2023/09/07 04:47:19;;;;;;;15.40;9.30;;;;;;;16.30;96.44;98444.59;4104987;28;20644;-87
2023/09/07 04:49:23;;;;;;;9.67;8.67;;;;;;;16.30;95.46;98448.03;4102388;28;20724;-88
2023/09/07 04:51:26;;;;;;;10.00;8.53;;;;;;;16.29;97.21;98449.00;4118647;28;21084;-88
2023/09/07 04:53:30;;;;;;;10.27;8.93;;;;;;;16.28;96.79;98451.75;4118922;28;20715;-87
2023/09/07 04:55:38;;;;;;;9.87;8.37;;;;;;;16.28;97.12;98449.13;4106329;28;20633;-88
2023/09/07 04:57:43;;;;;;;10.40;8.63;;;;;;;16.27;96.94;98456.19;4106489;28;20789;-87
2023/09/07 04:59:46;;;;;;;9.63;7.70;;;;;;;16.26;96.84;98454.50;4104413;28;20654;-88
2023/09/07 05:01:49;;;;;;;9.57;8.33;;;;;;;16.25;97.20;98447.59;4130806;28;20633;-88
2023/09/07 05:03:54;;;;;;;10.60;9.00;;;;;;;16.26;96.59;98454.50;4131433;28;20636;-88
2023/09/07 05:05:58;;;;;;;13.87;8.97;;;;;;;16.30;96.40;98461.19;4111361;28;20657;-88
2023/09/07 05:08:02;;;;;;;9.70;7.80;;;;;;;16.34;97.61;98454.72;4116527;28;20652;-88
2023/09/07 05:10:08;;;;;;;9.83;8.80;;;;;;;16.47;96.34;98454.50;4117792;28;20646;-87
2023/09/07 05:12:14;;;;;;;8.67;7.67;;;;;;;16.58;95.59;98461.34;4121216;28;20624;-87
2023/09/07 05:14:18;;;;;;;10.33;9.13;;;;;;;16.73;96.03;98464.44;4115746;28;20660;-87
2023/09/07 05:16:21;;;;;;;8.70;7.80;;;;;;;16.85;94.98;98463.38;4123027;28;20658;-87
2023/09/07 05:18:25;;;;;;;10.70;7.70;;;;;;;16.96;95.75;98469.38;4119334;28;20676;-88
2023/09/07 05:20:31;;;;;;;10.20;7.90;;;;;;;17.07;95.25;98471.88;4124948;28;20670;-87
2023/09/07 05:22:37;;;;;;;9.43;7.90;;;;;;;17.19;93.92;98476.09;4121185;28;20624;-88
2023/09/07 05:24:46;;;;;;;10.40;8.07;;;;;;;17.28;93.76;98472.66;4118153;28;20653;-88
2023/09/07 05:26:50;;;;;;;8.23;7.40;;;;;;;17.45;93.04;98477.25;4110480;28;21302;-88
2023/09/07 05:28:54;;;;;;;10.03;7.60;;;;;;;17.58;92.19;98484.75;4104849;28;21041;-88
2023/09/07 05:30:59;;;;;;;9.97;7.47;;;;;;;17.69;93.62;98481.97;4092764;28;20694;-88
2023/09/07 05:33:02;;;;;;;10.47;8.00;;;;;;;17.82;92.38;98490.47;4128164;28;20759;-89
2023/09/07 05:35:06;;;;;;;8.50;7.30;;;;;;;17.98;92.65;98488.06;4132062;28;20651;-88
2023/09/07 05:37:09;;;;;;;8.43;7.63;;;;;;;18.11;91.04;98493.91;4114998;28;21255;-88
2023/09/07 05:39:14;;;;;;;8.80;7.13;;;;;;;18.28;91.87;98507.28;4103643;28;20629;-88
2023/09/07 05:41:17;;;;;;;8.90;7.80;;;;;;;18.42;90.37;98505.00;4115806;28;20642;-88
2023/09/07 05:43:21;;;;;;;8.80;7.90;;;;;;;18.58;90.80;98509.69;4121852;28;21199;-88
2023/09/07 05:45:24;;;;;;;8.63;7.73;;;;;;;18.70;89.90;98508.53;4119389;28;20625;-88
2023/09/07 05:47:29;;;;;;;8.43;7.53;;;;;;;18.88;89.20;98509.44;4111362;28;20629;-88
2023/09/07 05:49:32;;;;;;;8.40;7.50;;;;;;;19.04;88.63;98510.50;4126074;28;20633;-88
2023/09/07 05:51:36;;;;;;;8.60;7.67;;;;;;;19.19;88.23;98516.97;4119993;28;20646;-86
2023/09/07 05:53:40;;;;;;;8.93;8.00;;;;;;;19.33;88.76;98504.06;4133329;28;21159;-86
2023/09/07 05:55:43;;;;;;;8.70;7.43;;;;;;;19.50;87.03;98516.50;4099061;28;20642;-85
2023/09/07 05:57:46;;;;;;;8.63;7.73;;;;;;;19.64;87.99;98510.72;4121835;28;20630;-86
2023/09/07 05:59:52;;;;;;;8.90;7.63;;;;;;;19.75;87.28;98507.84;4109879;28;20719;-85
2023/09/07 06:01:55;;;;;;;9.10;7.80;;;;;;;19.84;84.31;98507.75;4113466;28;21191;-85
2023/09/07 06:04:00;;;;;;;8.20;7.50;;;;;;;19.99;86.33;98508.91;4122439;28;20652;-86
2023/09/07 06:06:04;;;;;;;8.27;7.47;;;;;;;20.14;85.83;98512.69;4123569;28;20678;-85
2023/09/07 06:08:08;;;;;;;11.53;7.77;;;;;;;20.26;85.93;98512.28;4127040;28;21104;-86
2023/09/07 06:10:11;;;;;;;11.03;8.30;;;;;;;20.38;85.95;98509.22;4124377;28;20635;-85
2023/09/07 06:12:15;;;;;;;10.60;8.90;;;;;;;20.52;85.22;98515.78;4121367;28;20744;-86
2023/09/07 06:14:18;;;;;;;9.23;8.00;;;;;;;20.64;83.70;98510.09;4118037;28;20759;-85
2023/09/07 06:16:21;;;;;;;8.87;7.83;;;;;;;20.70;81.74;98506.81;4123078;28;20630;-85
2023/09/07 06:18:23;;;;;;;9.63;8.10;;;;;;;20.82;81.92;98510.88;4136041;28;20737;-85
2023/09/07 06:20:28;;;;;;;7.90;7.10;;;;;;;20.91;80.62;98507.25;4116966;28;20675;-85
2023/09/07 06:22:33;;;;;;;10.23;8.23;;;;;;;20.98;80.87;98513.63;4105737;28;20651;-86
2023/09/07 06:24:36;;;;;;;8.73;7.87;;;;;;;21.07;81.63;98516.13;4117401;28;20627;-85
2023/09/07 06:26:39;;;;;;;11.10;8.47;;;;;;;21.26;83.14;98515.03;4123117;28;20734;-85
2023/09/07 06:28:42;;;;;;;10.37;7.83;;;;;;;21.40;82.48;98512.63;4122398;28;20657;-85
2023/09/07 06:30:46;;;;;;;9.07;7.90;;;;;;;21.47;80.52;98518.97;4123108;28;21018;-85
2023/09/07 06:32:51;;;;;;;9.80;8.50;;;;;;;21.57;81.42;98520.50;4123998;28;20733;-85
2023/09/07 06:34:54;;;;;;;13.03;7.90;;;;;;;21.60;79.41;98512.19;4111055;28;20662;-85
2023/09/07 06:36:58;;;;;;;8.27;7.40;;;;;;;21.76;81.13;98510.41;4118562;28;20734;-86
2023/09/07 06:39:02;;;;;;;10.77;8.30;;;;;;;21.92;81.33;98510.44;4118967;28;21215;-85
2023/09/07 06:41:07;;;;;;;8.53;7.70;;;;;;;22.07;79.86;98510.59;4107528;28;20640;-85
2023/09/07 06:43:10;;;;;;;9.20;7.70;;;;;;;22.17;78.91;98508.63;4128901;28;20637;-86
2023/09/07 06:45:13;;;;;;;8.03;7.23;;;;;;;22.33;79.20;98510.31;4120723;28;20759;-86
2023/09/07 06:47:16;;;;;;;7.97;7.17;;;;;;;22.47;81.13;98522.94;4123439;28;20666;-85
2023/09/07 06:49:21;;;;;;;9.40;7.20;;;;;;;22.68;80.29;98519.75;4114346;28;20656;-86
2023/09/07 06:51:24;;;;;;;7.90;7.10;;;;;;;22.85;79.95;98524.84;4115063;28;20734;-85
2023/09/07 06:53:29;;;;;;;8.00;6.80;;;;;;;23.00;80.16;98520.53;4133130;28;21307;-86
2023/09/07 06:55:58;;;;;;;7.77;6.97;;;;;;;23.15;78.35;98521.47;4101446;28;20634;-85
2023/09/07 06:58:02;;;;;;;9.07;7.07;;;;;;;23.23;80.15;98525.78;4119594;28;20621;-86
2023/09/07 07:00:06;;;;;;;8.07;6.70;;;;;;;23.38;77.67;98510.72;4121702;28;20642;-86
2023/09/07 07:02:10;;;;;;;7.73;7.03;;;;;;;23.55;77.27;98514.97;4101145;28;20639;-86
2023/09/07 07:04:13;;;;;;;7.40;6.70;;;;;;;23.68;78.73;98512.59;4121782;28;20665;-85
2023/09/07 07:06:15;;;;;;;9.90;7.10;;;;;;;23.88;77.35;98521.81;4116371;28;20727;-86
2023/09/07 07:08:19;;;;;;;6.90;6.20;;;;;;;24.06;76.00;98507.16;4126018;28;20643;-85
2023/09/07 07:10:23;;;;;;;6.70;6.10;;;;;;;24.25;76.21;98512.84;4124936;28;20627;-86
2023/09/07 07:12:26;;;;;;;7.60;6.27;;;;;;;24.44;73.34;98517.69;4118263;28;20718;-86
2023/09/07 07:14:30;;;;;;;6.70;6.10;;;;;;;24.70;74.63;98518.97;4124042;28;21301;-86
2023/09/07 07:16:33;;;;;;;7.63;6.40;;;;;;;24.91;73.96;98516.41;4115868;28;20732;-86
2023/09/07 07:18:37;;;;;;;6.77;6.17;;;;;;;25.09;71.41;98519.56;4106527;28;20827;-86
2023/09/07 07:20:40;;;;;;;6.20;5.60;;;;;;;25.13;70.27;98521.69;4123981;28;20651;-86
2023/09/07 07:22:44;;;;;;;7.10;6.20;;;;;;;25.22;69.46;98527.78;4105466;28;20641;-86
2023/09/07 07:24:50;;;;;;;7.27;5.93;;;;;;;25.32;70.10;98521.13;4110902;28;20644;-85
2023/09/07 07:26:56;;;;;;;6.70;5.80;;;;;;;25.56;71.98;98526.16;4123916;28;20824;-85
2023/09/07 07:29:00;;;;;;;6.27;5.67;;;;;;;25.74;70.91;98521.25;4121861;28;21163;-86
2023/09/07 07:31:09;;;;;;;6.80;5.50;;;;;;;25.86;68.08;98520.59;4111658;28;20663;-85
2023/09/07 07:33:13;;;;;;;5.93;5.43;;;;;;;25.93;69.14;98520.66;4105888;28;21546;-86
2023/09/07 07:35:17;;;;;;;7.23;6.53;;;;;;;25.97;69.02;98516.59;4134611;28;20695;-86
2023/09/07 07:37:20;;;;;;;6.80;6.20;;;;;;;26.04;67.18;98512.97;4119049;28;20635;-87
2023/09/07 07:39:23;;;;;;;8.03;6.00;;;;;;;26.08;67.32;98515.06;4119081;28;20635;-86
2023/09/07 07:41:26;;;;;;;6.50;5.90;;;;;;;26.21;68.51;98519.72;4129883;28;20642;-87
2023/09/07 07:43:31;;;;;;;6.20;5.60;;;;;;;26.39;68.08;98520.13;4122572;28;20669;-86
2023/09/07 07:45:36;;;;;;;6.13;5.63;;;;;;;26.46;67.33;98521.84;4117818;28;20616;-86
2023/09/07 07:47:40;;;;;;;6.80;5.57;;;;;;;26.45;67.79;98522.84;4123456;28;20633;-86
2023/09/07 07:49:44;;;;;;;9.20;6.03;;;;;;;26.53;68.22;98514.69;4111976;28;20741;-86
2023/09/07 07:51:47;;;;;;;6.30;5.70;;;;;;;26.50;66.26;98515.06;4122459;28;20622;-85
2023/09/07 07:53:50;;;;;;;6.03;5.47;;;;;;;26.43;66.69;98511.53;4108648;28;20629;-86
2023/09/07 07:55:55;;;;;;;6.80;6.20;;;;;;;26.54;67.57;98505.63;4106595;28;20640;-86
2023/09/07 07:57:59;;;;;;;6.60;5.90;;;;;;;26.66;67.54;98506.75;4107474;28;20697;-85
2023/09/07 08:00:06;;;;;;;6.73;5.63;;;;;;;26.84;67.34;98507.09;4132741;28;21026;-88
2023/09/07 08:02:26;;;;;;;6.07;5.57;;;;;;;26.86;66.87;98500.50;4123177;28;21101;-86
2023/09/07 08:04:32;;;;;;;6.87;6.27;;;;;;;26.91;65.28;98498.09;4117640;28;21047;-87
2023/09/07 08:06:36;;;;;;;6.53;5.93;;;;;;;26.92;66.68;98498.94;4104247;28;21002;-86
2023/09/07 08:08:39;;;;;;;6.30;5.70;;;;;;;26.88;65.87;98492.28;4118669;28;20655;-85
2023/09/07 08:10:44;;;;;;;6.53;5.93;;;;;;;26.99;66.73;98495.28;4116236;28;20664;-89
2023/09/07 08:12:48;;;;;;;6.00;5.40;;;;;;;27.12;67.31;98498.88;4124778;28;20972;-89
2023/09/07 08:14:51;;;;;;;6.43;5.83;;;;;;;27.22;66.52;98503.84;4111224;28;20644;-88
2023/09/07 08:16:57;;;;;;;7.10;5.40;;;;;;;27.26;67.59;98502.44;4109140;28;20671;-88
2023/09/07 08:19:00;;;;;;;7.83;5.90;;;;;;;27.41;67.72;98503.09;4119703;28;20644;-89
2023/09/07 08:21:03;;;;;;;7.10;6.50;;;;;;;27.51;64.43;98495.56;4109806;28;20621;-89
2023/09/07 08:23:10;;;;;;;6.60;6.00;;;;;;;27.49;64.59;98495.72;4116104;28;20966;-88
2023/09/07 08:25:14;;;;;;;6.63;5.77;;;;;;;27.45;64.39;98488.28;4107619;28;20629;-89
2023/09/07 08:27:18;;;;;;;6.13;5.50;;;;;;;27.52;65.07;98492.69;4104939;28;20719;-89
2023/09/07 08:29:27;;;;;;;6.43;5.83;;;;;;;27.56;66.56;98484.03;4123809;28;21907;-89
2023/09/07 08:31:30;;;;;;;6.13;5.63;;;;;;;27.62;66.31;98488.59;4123165;28;20623;-89
2023/09/07 08:33:40;;;;;;;6.50;6.00;;;;;;;27.62;64.58;98482.41;4122179;28;20617;-89
2023/09/07 08:35:44;;;;;;;6.27;5.70;;;;;;;27.60;64.61;98484.44;4122934;28;20658;-89
2023/09/07 08:37:48;;;;;;;6.33;5.73;;;;;;;27.63;63.92;98478.69;4120709;28;21066;-89
2023/09/07 08:39:50;;;;;;;7.37;6.70;;;;;;;27.56;64.62;98478.69;4120095;28;20699;-89
2023/09/07 08:41:53;;;;;;;6.03;5.43;;;;;;;27.44;65.81;98474.06;4122767;28;20723;-89
2023/09/07 08:44:05;;;;;;;6.23;5.67;;;;;;;27.48;66.69;98472.63;4106926;28;20684;-89
2023/09/07 08:46:14;;;;;;;5.97;5.37;;;;;;;27.57;65.04;98474.13;4121136;28;20674;-89
2023/09/07 08:48:18;;;;;;;6.47;5.97;;;;;;;27.52;64.83;98481.13;4126687;28;20764;-89
2023/09/07 08:50:24;;;;;;;7.10;6.50;;;;;;;27.60;66.38;98481.78;4130804;28;20631;-89
2023/09/07 08:52:27;;;;;;;8.30;6.10;;;;;;;27.74;66.19;98481.63;4133843;28;20737;-89
2023/09/07 08:54:31;;;;;;;6.53;5.93;;;;;;;27.73;63.86;98485.31;4129705;28;20638;-89
2023/09/07 08:56:35;;;;;;;7.00;6.37;;;;;;;27.62;66.05;98482.41;4119675;28;20637;-89
2023/09/07 08:58:40;;;;;;;5.93;5.33;;;;;;;27.62;65.32;98485.09;4120734;28;21061;-88
2023/09/07 09:00:43;;;;;;;6.13;5.53;;;;;;;27.72;64.91;98480.97;4119044;28;21534;-89
2023/09/07 09:02:48;;;;;;;6.67;6.07;;;;;;;27.64;65.08;98477.66;4107871;28;20626;-89
2023/09/07 09:04:54;;;;;;;6.27;5.67;;;;;;;27.68;65.68;98476.22;4105355;28;20725;-88
2023/09/07 09:07:01;;;;;;;6.23;5.63;;;;;;;27.59;64.83;98482.81;4120191;28;20638;-89
2023/09/07 09:09:05;;;;;;;6.00;5.50;;;;;;;27.79;67.44;98481.03;4105328;28;20645;-88
2023/09/07 09:11:09;;;;;;;6.37;5.87;;;;;;;28.05;68.45;98482.72;4103236;28;20643;-88
2023/09/07 09:13:12;;;;;;;6.60;6.00;;;;;;;28.23;64.76;98482.16;4113871;28;21251;-88
2023/09/07 09:15:16;;;;;;;6.50;5.80;;;;;;;28.28;64.43;98485.03;4119578;28;20667;-88
2023/09/07 09:17:19;;;;;;;8.53;6.10;;;;;;;28.38;65.71;98474.72;4118167;28;20730;-88
2023/09/07 09:19:31;;;;;;;7.63;5.87;;;;;;;28.47;64.46;98477.00;4114971;28;20695;-88
2023/09/07 09:21:36;;;;;;;5.97;5.37;;;;;;;28.43;63.34;98486.50;4117162;28;20639;-87
2023/09/07 09:23:41;;;;;;;6.93;5.60;;;;;;;28.46;65.31;98482.56;4122890;28;20639;-87
2023/09/07 09:25:43;;;;;;;9.13;5.87;;;;;;;28.45;64.85;98478.25;4121045;28;21372;-87
2023/09/07 09:27:47;;;;;;;6.10;5.60;;;;;;;28.37;63.68;98473.91;4118339;28;21212;-87
2023/09/07 09:29:51;;;;;;;7.00;5.70;;;;;;;28.45;63.52;98472.88;4119447;28;20638;-87
2023/09/07 09:31:54;;;;;;;6.53;5.90;;;;;;;28.36;64.32;98469.56;4131237;28;20737;-87
2023/09/07 09:33:58;;;;;;;6.93;6.23;;;;;;;28.49;66.13;98465.03;4116918;28;20687;-87
2023/09/07 09:36:02;;;;;;;6.50;5.90;;;;;;;28.59;64.43;98469.97;4117314;28;20687;-86
2023/09/07 09:38:05;;;;;;;6.10;5.60;;;;;;;28.62;65.98;98462.31;4107387;28;20632;-87
2023/09/07 09:40:11;;;;;;;6.20;5.60;;;;;;;28.69;64.00;98467.72;4121511;28;20659;-87
2023/09/07 09:42:14;;;;;;;13.40;12.20;;;;;;;28.80;67.49;98470.59;4119023;28;20682;-87